PWSweather.com
Personal Weather Stations
Station Observations
270882
Flassian, LimouxFR 11300

FlassianLimouxFR 11300

Lat: 43.071798, Lon: 2.217292

Elevation: 165

Station Type: Oregon WMR 200

http://www.meteolimoux.fr

Latest ConditionsUpdated 5:12:11 PM GMT+01:01 Monday, Oct 15, 2018
Currently Today's Max Today's Min Today's Average
Temperature 63.3°F17.4°C 63.5°F17.5°C 55.8°F13.2°C 57.7°F14.3°C
Dew Point 53.1°F11.7°C 55.2°F12.9°C 51.3°F10.7°C 53.7°F12.1°C
Winds 0.2 mph NE0.3 kmh NE 6.5 mph -10.5 kmh - - 1.4 mph 2.3 kmh
Wind Gusts 1.3 mph2.1 kmh 11.9 mph19.2 kmh - -
Humidity 69% 93% 69% 87%
Pressure 29.81 in1009.5 mb 29.84 in1010.5 mb 29.69 in1005.4 mb -
Precipitation - 2.53 in64.3 mm - -
Hour Temp Dew Point Humidity Winds Wind Gusts Pressure Precip Precip Rate Daily Precip Total
05:12 PM 63.3°F17.4°C 53.1°F11.7°C 69% 0.2 mph NE0.3 kmh NE 1.3 mph2.1 kmh 29.81 in1009.5 mb - 0.00 in0.0 mm 2.53 in64.3 mm
05:07 PM 63.5°F17.5°C 53.6°F12.0°C 70% 0.9 mph NNW1.4 kmh NNW 4.3 mph6.9 kmh 29.81 in1009.5 mb - 0.00 in0.0 mm 2.53 in64.3 mm
05:02 PM 63.3°F17.4°C 53.1°F11.7°C 69% 2.2 mph WNW3.5 kmh WNW 5.4 mph8.7 kmh 29.81 in1009.5 mb - 0.00 in0.0 mm 2.53 in64.3 mm
04:57 PM 63.5°F17.5°C 53.6°F12.0°C 70% 1.3 mph W2.1 kmh W 3.8 mph6.1 kmh 29.81 in1009.5 mb - 0.00 in0.0 mm 2.53 in64.3 mm
04:52 PM 63.1°F17.3°C 53.6°F12.0°C 71% Calm Calm -- 29.81 in1009.5 mb - 0.00 in0.0 mm 2.53 in64.3 mm
04:47 PM 62.6°F17.0°C 53.1°F11.7°C 71% 0.4 mph NW0.6 kmh NW 2.7 mph4.3 kmh 29.81 in1009.5 mb - 0.00 in0.0 mm 2.53 in64.3 mm
04:42 PM 62.4°F16.9°C 52.9°F11.6°C 71% 2.0 mph WNW3.2 kmh WNW 4.3 mph6.9 kmh 29.81 in1009.5 mb - 0.00 in0.0 mm 2.53 in64.3 mm
04:37 PM 62.2°F16.8°C 52.7°F11.5°C 71% 1.8 mph NW2.9 kmh NW 5.1 mph8.2 kmh 29.81 in1009.5 mb - 0.00 in0.0 mm 2.53 in64.3 mm
04:32 PM 62.4°F16.9°C 52.5°F11.4°C 70% 0.9 mph WSW1.4 kmh WSW 3.1 mph5.0 kmh 29.81 in1009.5 mb - 0.00 in0.0 mm 2.53 in64.3 mm
04:27 PM 62.6°F17.0°C 52.7°F11.5°C 70% 0.4 mph W0.6 kmh W 3.4 mph5.5 kmh 29.81 in1009.5 mb - 0.00 in0.0 mm 2.53 in64.3 mm
04:22 PM 62.6°F17.0°C 52.7°F11.5°C 70% 0.9 mph W1.4 kmh W 2.9 mph4.7 kmh 29.81 in1009.5 mb - 0.00 in0.0 mm 2.53 in64.3 mm
04:17 PM 62.6°F17.0°C 52.7°F11.5°C 70% Calm Calm -- 29.81 in1009.5 mb - 0.00 in0.0 mm 2.53 in64.3 mm
04:12 PM 62.4°F16.9°C 52.5°F11.4°C 70% 1.1 mph NW1.8 kmh NW 3.6 mph5.8 kmh 29.81 in1009.5 mb - 0.00 in0.0 mm 2.53 in64.3 mm
04:07 PM 62.4°F16.9°C 52.5°F11.4°C 70% 0.7 mph NW1.1 kmh NW 4.3 mph6.9 kmh 29.81 in1009.5 mb - 0.00 in0.0 mm 2.53 in64.3 mm
04:02 PM 62.4°F16.9°C 52.5°F11.4°C 70% 2.0 mph WSW3.2 kmh WSW 4.7 mph7.6 kmh 29.81 in1009.5 mb - 0.00 in0.0 mm 2.53 in64.3 mm
03:57 PM 62.6°F17.0°C 52.3°F11.3°C 69% 1.6 mph WSW2.6 kmh WSW 4.9 mph7.9 kmh 29.78 in1008.5 mb - 0.00 in0.0 mm 2.53 in64.3 mm
03:52 PM 62.8°F17.1°C 52.9°F11.6°C 70% 0.2 mph WSW0.3 kmh WSW 2.9 mph4.7 kmh 29.78 in1008.5 mb - 0.00 in0.0 mm 2.53 in64.3 mm
03:47 PM 62.8°F17.1°C 52.9°F11.6°C 70% 0.7 mph NW1.1 kmh NW 3.6 mph5.8 kmh 29.78 in1008.5 mb - 0.00 in0.0 mm 2.53 in64.3 mm
03:42 PM 62.8°F17.1°C 52.5°F11.4°C 69% 0.4 mph NW0.6 kmh NW 2.2 mph3.5 kmh 29.78 in1008.5 mb - 0.00 in0.0 mm 2.53 in64.3 mm
03:37 PM 63.0°F17.2°C 53.4°F11.9°C 71% Calm Calm -- 29.78 in1008.5 mb - 0.00 in0.0 mm 2.53 in64.3 mm
03:32 PM 62.8°F17.1°C 53.2°F11.8°C 71% Calm Calm -- 29.78 in1008.5 mb - 0.00 in0.0 mm 2.53 in64.3 mm
03:27 PM 62.6°F17.0°C 53.1°F11.7°C 71% Calm Calm -- 29.81 in1009.5 mb - 0.00 in0.0 mm 2.53 in64.3 mm
03:22 PM 62.4°F16.9°C 53.2°F11.8°C 72% 0.2 mph WNW0.3 kmh WNW 2.9 mph4.7 kmh 29.81 in1009.5 mb - 0.00 in0.0 mm 2.53 in64.3 mm
03:17 PM 62.2°F16.8°C 52.7°F11.5°C 71% 0.9 mph WNW1.4 kmh WNW 3.4 mph5.5 kmh 29.81 in1009.5 mb - 0.00 in0.0 mm 2.53 in64.3 mm
03:12 PM 62.2°F16.8°C 52.7°F11.5°C 71% 0.2 mph N0.3 kmh N 3.6 mph5.8 kmh 29.81 in1009.5 mb - 0.00 in0.0 mm 2.53 in64.3 mm
03:07 PM 62.4°F16.9°C 53.2°F11.8°C 72% 0.4 mph NW0.6 kmh NW 2.7 mph4.3 kmh 29.81 in1009.5 mb - 0.00 in0.0 mm 2.53 in64.3 mm
03:02 PM 62.2°F16.8°C 52.7°F11.5°C 71% 2.0 mph N3.2 kmh N 4.7 mph7.6 kmh 29.81 in1009.5 mb - 0.00 in0.0 mm 2.53 in64.3 mm
02:57 PM 62.2°F16.8°C 52.7°F11.5°C 71% 0.7 mph NNW1.1 kmh NNW 3.6 mph5.8 kmh 29.78 in1008.5 mb - 0.00 in0.0 mm 2.53 in64.3 mm
02:52 PM 62.2°F16.8°C 52.7°F11.5°C 71% 2.0 mph NW3.2 kmh NW 4.5 mph7.2 kmh 29.78 in1008.5 mb - 0.00 in0.0 mm 2.53 in64.3 mm
02:47 PM 62.2°F16.8°C 52.3°F11.3°C 70% 1.1 mph NW1.8 kmh NW 3.8 mph6.1 kmh 29.78 in1008.5 mb - 0.00 in0.0 mm 2.53 in64.3 mm
11:27 AM 58.3°F14.6°C 53.1°F11.7°C 83% 2.5 mph W4.0 kmh W 4.3 mph6.9 kmh 29.78 in1008.5 mb - 0.00 in0.0 mm 2.53 in64.3 mm
11:22 AM 57.9°F14.4°C 52.9°F11.6°C 83% 1.3 mph WSW2.1 kmh WSW 5.6 mph9.0 kmh 29.78 in1008.5 mb - 0.00 in0.0 mm 2.53 in64.3 mm
11:17 AM 57.7°F14.3°C 52.9°F11.6°C 84% 2.0 mph WSW3.2 kmh WSW 4.9 mph7.9 kmh 29.78 in1008.5 mb - 0.00 in0.0 mm 2.53 in64.3 mm
11:12 AM 57.9°F14.4°C 53.1°F11.7°C 84% 2.9 mph WSW4.7 kmh WSW 4.3 mph6.9 kmh 29.78 in1008.5 mb - 0.00 in0.0 mm 2.53 in64.3 mm
11:07 AM 57.7°F14.3°C 53.2°F11.8°C 85% 0.7 mph WSW1.1 kmh WSW 4.9 mph7.9 kmh 29.78 in1008.5 mb - 0.00 in0.0 mm 2.53 in64.3 mm
11:02 AM 57.7°F14.3°C 53.2°F11.8°C 85% 1.8 mph WNW2.9 kmh WNW 4.3 mph6.9 kmh 29.78 in1008.5 mb - 0.00 in0.0 mm 2.53 in64.3 mm
10:57 AM 57.4°F14.1°C 53.2°F11.8°C 86% 1.3 mph SW2.1 kmh SW 4.9 mph7.9 kmh 29.81 in1009.5 mb - 0.00 in0.0 mm 2.53 in64.3 mm
10:52 AM 57.4°F14.1°C 53.2°F11.8°C 86% 1.6 mph S2.6 kmh S 4.0 mph6.4 kmh 29.81 in1009.5 mb - 0.00 in0.0 mm 2.53 in64.3 mm
10:47 AM 57.2°F14.0°C 53.1°F11.7°C 86% 1.8 mph WSW2.9 kmh WSW 4.3 mph6.9 kmh 29.81 in1009.5 mb - 0.00 in0.0 mm 2.53 in64.3 mm
10:42 AM 56.8°F13.8°C 52.7°F11.5°C 86% 5.4 mph WSW8.7 kmh WSW 8.5 mph13.7 kmh 29.81 in1009.5 mb - 0.00 in0.0 mm 2.53 in64.3 mm
10:37 AM 56.7°F13.7°C 52.2°F11.2°C 85% 5.8 mph WNW9.3 kmh WNW 11.0 mph17.7 kmh 29.81 in1009.5 mb - 0.00 in0.0 mm 2.53 in64.3 mm
10:32 AM 56.7°F13.7°C 52.2°F11.2°C 85% 6.5 mph WNW10.5 kmh WNW 11.9 mph19.2 kmh 29.81 in1009.5 mb - 0.00 in0.0 mm 2.53 in64.3 mm
10:27 AM 56.3°F13.5°C 51.3°F10.7°C 83% 4.3 mph WNW6.9 kmh WNW 4.3 mph6.9 kmh 29.81 in1009.5 mb - 0.00 in0.0 mm 2.53 in64.3 mm
10:22 AM 56.5°F13.6°C 52.0°F11.1°C 85% 4.3 mph NW6.9 kmh NW 7.8 mph12.6 kmh 29.81 in1009.5 mb - 0.00 in0.0 mm 2.53 in64.3 mm
10:17 AM 56.3°F13.5°C 51.8°F11.0°C 85% 4.9 mph WNW7.9 kmh WNW 8.7 mph14.0 kmh 29.81 in1009.5 mb - 0.00 in0.0 mm 2.53 in64.3 mm
10:12 AM 56.1°F13.4°C 51.6°F10.9°C 85% 4.3 mph NW6.9 kmh NW 7.4 mph11.9 kmh 29.81 in1009.5 mb - 0.00 in0.0 mm 2.53 in64.3 mm
10:07 AM 56.3°F13.5°C 52.2°F11.2°C 86% 5.1 mph NW8.2 kmh NW 8.7 mph14.0 kmh 29.81 in1009.5 mb - 0.00 in0.0 mm 2.53 in64.3 mm
10:02 AM 56.5°F13.6°C 52.7°F11.5°C 87% 5.4 mph NNW8.7 kmh NNW 11.9 mph19.2 kmh 29.81 in1009.5 mb - 0.00 in0.0 mm 2.53 in64.3 mm
09:57 AM 56.5°F13.6°C 52.7°F11.5°C 87% 4.5 mph WNW7.2 kmh WNW 10.5 mph16.9 kmh 29.81 in1009.5 mb - 0.00 in0.0 mm 2.53 in64.3 mm
09:52 AM 56.8°F13.8°C 53.6°F12.0°C 89% 3.4 mph NNW5.5 kmh NNW 8.3 mph13.4 kmh 29.81 in1009.5 mb - 0.00 in0.0 mm 2.53 in64.3 mm
09:47 AM 56.3°F13.5°C 52.9°F11.6°C 88% 4.3 mph NW6.9 kmh NW 10.5 mph16.9 kmh 29.81 in1009.5 mb - 0.00 in0.0 mm 2.53 in64.3 mm
09:42 AM 56.8°F13.8°C 54.3°F12.4°C 91% 3.4 mph W5.5 kmh W 7.4 mph11.9 kmh 29.78 in1008.5 mb - 0.00 in0.0 mm 2.53 in64.3 mm
09:37 AM 57.0°F13.9°C 54.7°F12.6°C 92% 3.6 mph NW5.8 kmh NW 8.1 mph13.0 kmh 29.78 in1008.5 mb - 0.00 in0.0 mm 2.53 in64.3 mm
09:32 AM 57.0°F13.9°C 54.7°F12.6°C 92% 4.3 mph NW6.9 kmh NW 8.5 mph13.7 kmh 29.78 in1008.5 mb - 0.00 in0.0 mm 2.53 in64.3 mm
09:27 AM 57.0°F13.9°C 54.7°F12.6°C 92% 2.5 mph NW4.0 kmh NW 6.5 mph10.5 kmh 29.78 in1008.5 mb - 0.03 in0.8 mm 2.53 in64.3 mm
09:22 AM 56.8°F13.8°C 54.9°F12.7°C 93% 0.9 mph NW1.4 kmh NW 5.6 mph9.0 kmh 29.78 in1008.5 mb - 0.03 in0.8 mm 2.53 in64.3 mm
09:17 AM 56.8°F13.8°C 54.9°F12.7°C 93% Calm Calm -- 29.78 in1008.5 mb - 0.03 in0.8 mm 2.53 in64.3 mm
09:12 AM 56.5°F13.6°C 54.5°F12.5°C 93% Calm Calm -- 29.78 in1008.5 mb - 0.03 in0.8 mm 2.53 in64.3 mm
09:07 AM 56.5°F13.6°C 54.5°F12.5°C 93% Calm Calm -- 29.78 in1008.5 mb - 0.03 in0.8 mm 2.53 in64.3 mm
09:02 AM 56.3°F13.5°C 54.3°F12.4°C 93% Calm Calm -- 29.78 in1008.5 mb - 0.03 in0.8 mm 2.53 in64.3 mm
08:57 AM 56.1°F13.4°C 54.1°F12.3°C 93% Calm Calm -- 29.78 in1008.5 mb - 0.03 in0.8 mm 2.53 in64.3 mm
08:52 AM 55.9°F13.3°C 54.0°F12.2°C 93% Calm Calm -- 29.78 in1008.5 mb - 0.03 in0.8 mm 2.53 in64.3 mm
08:47 AM 55.8°F13.2°C 53.4°F11.9°C 92% Calm Calm -- 29.78 in1008.5 mb - 0.03 in0.8 mm 2.53 in64.3 mm
08:42 AM 55.8°F13.2°C 53.4°F11.9°C 92% 0.4 mph WNW0.6 kmh WNW 4.3 mph6.9 kmh 29.78 in1008.5 mb - 0.03 in0.8 mm 2.53 in64.3 mm
08:37 AM 55.9°F13.3°C 53.6°F12.0°C 92% 1.8 mph WSW2.9 kmh WSW 5.1 mph8.2 kmh 29.78 in1008.5 mb - 0.03 in0.8 mm 2.53 in64.3 mm
08:32 AM 55.8°F13.2°C 53.4°F11.9°C 92% 1.1 mph W1.8 kmh W 4.7 mph7.6 kmh 29.78 in1008.5 mb - 0.03 in0.8 mm 2.53 in64.3 mm
08:27 AM 55.9°F13.3°C 54.0°F12.2°C 93% Calm Calm -- 29.75 in1007.5 mb - 0.03 in0.8 mm 2.53 in64.3 mm
08:22 AM 55.9°F13.3°C 54.0°F12.2°C 93% Calm Calm -- 29.75 in1007.5 mb - 0.03 in0.8 mm 2.53 in64.3 mm
08:17 AM 55.9°F13.3°C 54.0°F12.2°C 93% Calm Calm -- 29.75 in1007.5 mb - 0.03 in0.8 mm 2.53 in64.3 mm
08:12 AM 55.8°F13.2°C 53.8°F12.1°C 93% Calm Calm -- 29.75 in1007.5 mb - 0.03 in0.8 mm 2.53 in64.3 mm
08:07 AM 55.8°F13.2°C 53.8°F12.1°C 93% Calm Calm -- 29.75 in1007.5 mb - 0.03 in0.8 mm 2.53 in64.3 mm
08:02 AM 55.8°F13.2°C 53.8°F12.1°C 93% Calm Calm -- 29.75 in1007.5 mb - 0.03 in0.8 mm 2.53 in64.3 mm
07:57 AM 55.8°F13.2°C 53.4°F11.9°C 92% Calm Calm -- 29.75 in1007.5 mb - 0.03 in0.8 mm 2.53 in64.3 mm
07:52 AM 55.8°F13.2°C 53.8°F12.1°C 93% Calm Calm 2.0 mph3.2 kmh 29.75 in1007.5 mb - 0.03 in0.8 mm 2.53 in64.3 mm
07:47 AM 55.8°F13.2°C 53.4°F11.9°C 92% 1.1 mph WSW1.8 kmh WSW 4.5 mph7.2 kmh 29.75 in1007.5 mb - 0.03 in0.8 mm 2.53 in64.3 mm
07:42 AM 55.8°F13.2°C 53.4°F11.9°C 92% Calm Calm -- 29.75 in1007.5 mb - 0.03 in0.8 mm 2.53 in64.3 mm
07:37 AM 55.8°F13.2°C 53.4°F11.9°C 92% Calm Calm -- 29.75 in1007.5 mb - 0.03 in0.8 mm 2.53 in64.3 mm
07:32 AM 55.8°F13.2°C 53.4°F11.9°C 92% Calm Calm -- 29.75 in1007.5 mb - 0.03 in0.8 mm 2.53 in64.3 mm
07:27 AM 55.9°F13.3°C 53.6°F12.0°C 92% Calm Calm -- 29.72 in1006.4 mb - 0.03 in0.8 mm 2.49 in63.2 mm
07:22 AM 55.9°F13.3°C 53.6°F12.0°C 92% 0.4 mph WSW0.6 kmh WSW 2.9 mph4.7 kmh 29.72 in1006.4 mb - 0.27 in6.9 mm 2.49 in63.2 mm
07:17 AM 55.9°F13.3°C 53.6°F12.0°C 92% Calm Calm -- 29.72 in1006.4 mb - 0.27 in6.9 mm 2.49 in63.2 mm
07:12 AM 55.9°F13.3°C 53.6°F12.0°C 92% Calm Calm -- 29.75 in1007.5 mb - 0.27 in6.9 mm 2.49 in63.2 mm
07:07 AM 55.9°F13.3°C 53.6°F12.0°C 92% Calm Calm -- 29.75 in1007.5 mb - 0.27 in6.9 mm 2.49 in63.2 mm
07:02 AM 55.9°F13.3°C 53.6°F12.0°C 92% Calm Calm -- 29.75 in1007.5 mb - 0.27 in6.9 mm 2.49 in63.2 mm
06:57 AM 55.9°F13.3°C 54.0°F12.2°C 93% Calm Calm -- 29.78 in1008.5 mb - 0.27 in6.9 mm 2.49 in63.2 mm
06:52 AM 55.9°F13.3°C 53.6°F12.0°C 92% Calm Calm -- 29.78 in1008.5 mb - 0.27 in6.9 mm 2.49 in63.2 mm
06:47 AM 55.8°F13.2°C 53.4°F11.9°C 92% Calm Calm -- 29.78 in1008.5 mb - 0.27 in6.9 mm 2.49 in63.2 mm
06:42 AM 55.8°F13.2°C 53.4°F11.9°C 92% Calm Calm -- 29.75 in1007.5 mb - 0.27 in6.9 mm 2.49 in63.2 mm
06:37 AM 55.9°F13.3°C 53.6°F12.0°C 92% Calm Calm -- 29.75 in1007.5 mb - 0.27 in6.9 mm 2.49 in63.2 mm
06:32 AM 55.9°F13.3°C 53.6°F12.0°C 92% 0.2 mph SW0.3 kmh SW 2.9 mph4.7 kmh 29.75 in1007.5 mb - 0.27 in6.9 mm 2.49 in63.2 mm
06:27 AM 55.9°F13.3°C 53.6°F12.0°C 92% Calm Calm 0.9 mph1.4 kmh 29.75 in1007.5 mb - 0.27 in6.9 mm 2.49 in63.2 mm
06:22 AM 55.8°F13.2°C 53.4°F11.9°C 92% Calm Calm -- 29.75 in1007.5 mb - 0.27 in6.9 mm 2.49 in63.2 mm
06:17 AM 55.8°F13.2°C 53.4°F11.9°C 92% Calm Calm -- 29.75 in1007.5 mb - 0.27 in6.9 mm 2.49 in63.2 mm
06:12 AM 55.8°F13.2°C 53.4°F11.9°C 92% Calm Calm -- 29.75 in1007.5 mb - 0.27 in6.9 mm 2.49 in63.2 mm
06:07 AM 55.8°F13.2°C 53.4°F11.9°C 92% Calm Calm -- 29.75 in1007.5 mb - 0.27 in6.9 mm 2.49 in63.2 mm
06:02 AM 55.8°F13.2°C 53.4°F11.9°C 92% Calm Calm -- 29.75 in1007.5 mb - 0.27 in6.9 mm 2.44 in62.0 mm
05:57 AM 55.8°F13.2°C 53.4°F11.9°C 92% Calm Calm -- 29.72 in1006.4 mb - 0.27 in6.9 mm 2.44 in62.0 mm
05:52 AM 55.8°F13.2°C 53.4°F11.9°C 92% Calm Calm -- 29.72 in1006.4 mb - 0.27 in6.9 mm 2.40 in61.0 mm
05:47 AM 55.8°F13.2°C 53.4°F11.9°C 92% Calm Calm -- 29.72 in1006.4 mb - 0.39 in9.9 mm 2.40 in61.0 mm
05:42 AM 55.8°F13.2°C 53.4°F11.9°C 92% Calm Calm 0.9 mph1.4 kmh 29.75 in1007.5 mb - 0.39 in9.9 mm 2.36 in59.9 mm
05:37 AM 55.8°F13.2°C 53.4°F11.9°C 92% 0.2 mph S0.3 kmh S 2.2 mph3.5 kmh 29.75 in1007.5 mb - 0.43 in10.9 mm 2.32 in58.9 mm
05:32 AM 55.8°F13.2°C 53.4°F11.9°C 92% 0.2 mph SSW0.3 kmh SSW 3.1 mph5.0 kmh 29.75 in1007.5 mb - 0.39 in9.9 mm 2.28 in57.9 mm
05:27 AM 55.9°F13.3°C 53.6°F12.0°C 92% Calm Calm -- 29.75 in1007.5 mb - 0.51 in13.0 mm 2.28 in57.9 mm
05:22 AM 55.9°F13.3°C 53.6°F12.0°C 92% Calm Calm -- 29.75 in1007.5 mb - 0.47 in11.9 mm 2.24 in56.9 mm
05:17 AM 55.9°F13.3°C 53.6°F12.0°C 92% Calm Calm -- 29.75 in1007.5 mb - 0.47 in11.9 mm 2.16 in54.9 mm
05:12 AM 55.9°F13.3°C 53.6°F12.0°C 92% 0.2 mph N0.3 kmh N 0.2 mph0.3 kmh 29.72 in1006.4 mb - 0.35 in8.9 mm 2.16 in54.9 mm
05:07 AM 55.9°F13.3°C 53.6°F12.0°C 92% Calm Calm 2.5 mph4.0 kmh 29.72 in1006.4 mb - 0.35 in8.9 mm 2.11 in53.6 mm
05:02 AM 55.9°F13.3°C 53.4°F11.9°C 91% 0.4 mph S0.6 kmh S 3.8 mph6.1 kmh 29.72 in1006.4 mb - 0.55 in14.0 mm 2.07 in52.6 mm
04:57 AM 55.9°F13.3°C 53.4°F11.9°C 91% 3.1 mph SW5.0 kmh SW 6.0 mph9.7 kmh 29.75 in1007.5 mb - 0.66 in16.8 mm 2.07 in52.6 mm
04:52 AM 55.9°F13.3°C 53.4°F11.9°C 91% 2.2 mph SW3.5 kmh SW 4.7 mph7.6 kmh 29.75 in1007.5 mb - 0.66 in16.8 mm 2.03 in51.6 mm
04:47 AM 56.1°F13.4°C 53.8°F12.1°C 92% 2.5 mph SW4.0 kmh SW 4.9 mph7.9 kmh 29.75 in1007.5 mb - 0.43 in10.9 mm 1.95 in49.5 mm
04:42 AM 56.1°F13.4°C 53.8°F12.1°C 92% 0.2 mph SW0.3 kmh SW 3.6 mph5.8 kmh 29.75 in1007.5 mb - 0.59 in15.0 mm 1.95 in49.5 mm
04:37 AM 56.1°F13.4°C 53.6°F12.0°C 91% 1.8 mph S2.9 kmh S 3.8 mph6.1 kmh 29.75 in1007.5 mb - 1.02 in25.9 mm 1.91 in48.5 mm
04:32 AM 56.1°F13.4°C 53.6°F12.0°C 91% 0.7 mph S1.1 kmh S 4.5 mph7.2 kmh 29.75 in1007.5 mb - 0.70 in17.8 mm 1.82 in46.2 mm
04:27 AM 56.1°F13.4°C 53.6°F12.0°C 91% Calm Calm -- 29.69 in1005.4 mb - 0.82 in20.8 mm 1.78 in45.2 mm
04:22 AM 56.1°F13.4°C 53.6°F12.0°C 91% Calm Calm -- 29.69 in1005.4 mb - 0.82 in20.8 mm 1.70 in43.2 mm
04:17 AM 56.1°F13.4°C 53.6°F12.0°C 91% Calm Calm -- 29.69 in1005.4 mb - 0.43 in10.9 mm 1.66 in42.2 mm
04:12 AM 56.1°F13.4°C 53.6°F12.0°C 91% 0.4 mph W0.6 kmh W 2.9 mph4.7 kmh 29.72 in1006.4 mb - 0.43 in10.9 mm 1.62 in41.1 mm
04:07 AM 56.3°F13.5°C 53.8°F12.1°C 91% Calm Calm -- 29.72 in1006.4 mb - 0.27 in6.9 mm 1.57 in39.9 mm
04:02 AM 56.3°F13.5°C 53.8°F12.1°C 91% Calm Calm -- 29.72 in1006.4 mb - 0.27 in6.9 mm 1.53 in38.9 mm
03:57 AM 56.3°F13.5°C 53.8°F12.1°C 91% Calm Calm -- 29.75 in1007.5 mb - 0.35 in8.9 mm 1.53 in38.9 mm
03:52 AM 56.5°F13.6°C 54.0°F12.2°C 91% Calm Calm -- 29.75 in1007.5 mb - 0.35 in8.9 mm 1.49 in37.8 mm
03:47 AM 56.5°F13.6°C 54.0°F12.2°C 91% 0.2 mph S0.3 kmh S 1.6 mph2.6 kmh 29.75 in1007.5 mb - 0.35 in8.9 mm 1.49 in37.8 mm
03:42 AM 56.5°F13.6°C 54.1°F12.3°C 92% 0.4 mph SSW0.6 kmh SSW 2.7 mph4.3 kmh 29.75 in1007.5 mb - 0.35 in8.9 mm 1.45 in36.8 mm
03:37 AM 56.7°F13.7°C 54.3°F12.4°C 92% Calm Calm -- 29.75 in1007.5 mb - 0.39 in9.9 mm 1.41 in35.8 mm
03:32 AM 56.7°F13.7°C 54.3°F12.4°C 92% 0.4 mph S0.6 kmh S 2.2 mph3.5 kmh 29.75 in1007.5 mb - 0.31 in7.9 mm 1.41 in35.8 mm
03:27 AM 56.7°F13.7°C 54.3°F12.4°C 92% 2.2 mph SSE3.5 kmh SSE 4.7 mph7.6 kmh 29.75 in1007.5 mb - 0.23 in5.8 mm 1.37 in34.8 mm
03:22 AM 56.8°F13.8°C 54.5°F12.5°C 92% 1.1 mph WNW1.8 kmh WNW 4.3 mph6.9 kmh 29.75 in1007.5 mb - 0.23 in5.8 mm 1.32 in33.5 mm
03:17 AM 56.8°F13.8°C 54.5°F12.5°C 92% 0.9 mph WNW1.4 kmh WNW 4.5 mph7.2 kmh 29.75 in1007.5 mb - 0.27 in6.9 mm 1.32 in33.5 mm
03:12 AM 56.7°F13.7°C 54.3°F12.4°C 92% 1.1 mph SE1.8 kmh SE 3.8 mph6.1 kmh 29.75 in1007.5 mb - 0.27 in6.9 mm 1.28 in32.5 mm
03:07 AM 56.8°F13.8°C 54.5°F12.5°C 92% 0.2 mph WSW0.3 kmh WSW 1.1 mph1.8 kmh 29.75 in1007.5 mb - 0.35 in8.9 mm 1.28 in32.5 mm
03:02 AM 57.0°F13.9°C 54.5°F12.5°C 91% 1.1 mph WSW1.8 kmh WSW 4.3 mph6.9 kmh 29.75 in1007.5 mb - 0.35 in8.9 mm 1.24 in31.5 mm
02:57 AM 57.0°F13.9°C 54.5°F12.5°C 91% 2.5 mph WSW4.0 kmh WSW 5.4 mph8.7 kmh 29.72 in1006.4 mb - 0.39 in9.9 mm 1.24 in31.5 mm
02:52 AM 57.0°F13.9°C 54.5°F12.5°C 91% 2.9 mph WSW4.7 kmh WSW 6.3 mph10.1 kmh 29.72 in1006.4 mb - 0.35 in8.9 mm 1.20 in30.5 mm
02:47 AM 57.2°F14.0°C 54.9°F12.7°C 92% 1.8 mph S2.9 kmh S 4.5 mph7.2 kmh 29.72 in1006.4 mb - 0.35 in8.9 mm 1.16 in29.5 mm
02:42 AM 57.2°F14.0°C 54.9°F12.7°C 92% 3.1 mph W5.0 kmh W 3.1 mph5.0 kmh 29.72 in1006.4 mb - 0.35 in8.9 mm 1.12 in28.4 mm
02:37 AM 57.2°F14.0°C 54.9°F12.7°C 92% 3.6 mph NW5.8 kmh NW 5.6 mph9.0 kmh 29.72 in1006.4 mb - 0.55 in14.0 mm 1.08 in27.4 mm
02:32 AM 57.2°F14.0°C 54.9°F12.7°C 92% 4.0 mph SSE6.4 kmh SSE 7.8 mph12.6 kmh 29.72 in1006.4 mb - 0.43 in10.9 mm 1.08 in27.4 mm
02:27 AM 57.2°F14.0°C 54.7°F12.6°C 91% 0.4 mph SSE0.6 kmh SSE 3.6 mph5.8 kmh 29.75 in1007.5 mb - 0.43 in10.9 mm 0.99 in25.1 mm
02:22 AM 57.4°F14.1°C 55.0°F12.8°C 92% 0.9 mph SW1.4 kmh SW 4.3 mph6.9 kmh 29.75 in1007.5 mb - 0.31 in7.9 mm 0.99 in25.1 mm
02:17 AM 57.4°F14.1°C 54.9°F12.7°C 91% 4.7 mph S7.6 kmh S 7.4 mph11.9 kmh 29.75 in1007.5 mb - 0.31 in7.9 mm 0.99 in25.1 mm
02:12 AM 57.4°F14.1°C 54.9°F12.7°C 91% 3.8 mph WNW6.1 kmh WNW 6.9 mph11.1 kmh 29.75 in1007.5 mb - 0.27 in6.9 mm 0.91 in23.1 mm
02:07 AM 57.4°F14.1°C 54.9°F12.7°C 91% 3.1 mph W5.0 kmh W 5.8 mph9.3 kmh 29.75 in1007.5 mb - 0.27 in6.9 mm 0.91 in23.1 mm
02:02 AM 57.4°F14.1°C 54.9°F12.7°C 91% 3.6 mph SW5.8 kmh SW 5.4 mph8.7 kmh 29.75 in1007.5 mb - 0.27 in6.9 mm 0.91 in23.1 mm
01:57 AM 57.4°F14.1°C 54.9°F12.7°C 91% 3.4 mph WSW5.5 kmh WSW 6.5 mph10.5 kmh 29.75 in1007.5 mb - 0.23 in5.8 mm 0.87 in22.1 mm
01:52 AM 57.4°F14.1°C 54.9°F12.7°C 91% 3.4 mph SW5.5 kmh SW 5.4 mph8.7 kmh 29.75 in1007.5 mb - 0.23 in5.8 mm 0.83 in21.1 mm
01:47 AM 57.6°F14.2°C 55.0°F12.8°C 91% 3.4 mph SW5.5 kmh SW 6.5 mph10.5 kmh 29.75 in1007.5 mb - 0.19 in4.8 mm 0.83 in21.1 mm
01:42 AM 57.6°F14.2°C 55.0°F12.8°C 91% 2.7 mph W4.3 kmh W 4.7 mph7.6 kmh 29.75 in1007.5 mb - 0.19 in4.8 mm 0.79 in20.1 mm
01:37 AM 57.4°F14.1°C 54.9°F12.7°C 91% 3.6 mph SW5.8 kmh SW 7.2 mph11.6 kmh 29.75 in1007.5 mb - 0.19 in4.8 mm 0.79 in20.1 mm
01:32 AM 57.6°F14.2°C 55.0°F12.8°C 91% 2.9 mph WSW4.7 kmh WSW 6.5 mph10.5 kmh 29.75 in1007.5 mb - 0.19 in4.8 mm 0.79 in20.1 mm
01:27 AM 57.6°F14.2°C 55.0°F12.8°C 91% 3.6 mph WSW5.8 kmh WSW 6.9 mph11.1 kmh 29.75 in1007.5 mb - 0.39 in9.9 mm 0.75 in19.1 mm
01:22 AM 57.6°F14.2°C 55.0°F12.8°C 91% 3.6 mph SW5.8 kmh SW 6.5 mph10.5 kmh 29.75 in1007.5 mb - 0.39 in9.9 mm 0.75 in19.1 mm
01:17 AM 57.6°F14.2°C 55.0°F12.8°C 91% 4.0 mph SW6.4 kmh SW 7.6 mph12.2 kmh 29.75 in1007.5 mb - 0.39 in9.9 mm 0.75 in19.1 mm
01:12 AM 57.6°F14.2°C 55.0°F12.8°C 91% 4.5 mph SSW7.2 kmh SSW 8.1 mph13.0 kmh 29.78 in1008.5 mb - 0.39 in9.9 mm 0.70 in17.8 mm
01:07 AM 57.6°F14.2°C 55.0°F12.8°C 91% 4.3 mph SW6.9 kmh SW 6.9 mph11.1 kmh 29.78 in1008.5 mb - 0.39 in9.9 mm 0.66 in16.8 mm
01:02 AM 57.6°F14.2°C 55.0°F12.8°C 91% 2.9 mph WSW4.7 kmh WSW 6.7 mph10.8 kmh 29.78 in1008.5 mb - 0.31 in7.9 mm 0.62 in15.7 mm
12:57 AM 57.6°F14.2°C 55.0°F12.8°C 91% 3.4 mph WSW5.5 kmh WSW 5.8 mph9.3 kmh 29.78 in1008.5 mb - 0.43 in10.9 mm 0.62 in15.7 mm
12:52 AM 57.7°F14.3°C 55.2°F12.9°C 91% 1.8 mph SW2.9 kmh SW 5.4 mph8.7 kmh 29.78 in1008.5 mb - 0.43 in10.9 mm 0.58 in14.7 mm
12:47 AM 57.7°F14.3°C 55.2°F12.9°C 91% 0.9 mph SSE1.4 kmh SSE 0.9 mph1.4 kmh 29.78 in1008.5 mb - 0.35 in8.9 mm 0.54 in13.7 mm
12:42 AM 57.7°F14.3°C 55.2°F12.9°C 91% 0.7 mph WSW1.1 kmh WSW 0.7 mph1.1 kmh 29.81 in1009.5 mb - 0.27 in6.9 mm 0.49 in12.4 mm
12:37 AM 57.7°F14.3°C 54.9°F12.7°C 90% 1.8 mph WSW2.9 kmh WSW 3.6 mph5.8 kmh 29.81 in1009.5 mb - 0.23 in5.8 mm 0.49 in12.4 mm
12:32 AM 57.7°F14.3°C 54.9°F12.7°C 90% 1.8 mph SW2.9 kmh SW 4.3 mph6.9 kmh 29.81 in1009.5 mb - 0.23 in5.8 mm 0.45 in11.4 mm
12:27 AM 57.7°F14.3°C 54.9°F12.7°C 90% 1.6 mph S2.6 kmh S 4.9 mph7.9 kmh 29.81 in1009.5 mb - 0.19 in4.8 mm 0.45 in11.4 mm
12:22 AM 57.9°F14.4°C 55.0°F12.8°C 90% 3.8 mph WSW6.1 kmh WSW 6.5 mph10.5 kmh 29.81 in1009.5 mb - 0.27 in6.9 mm 0.41 in10.4 mm
12:17 AM 57.9°F14.4°C 54.7°F12.6°C 89% 1.3 mph SW2.1 kmh SW 5.6 mph9.0 kmh 29.81 in1009.5 mb - 0.27 in6.9 mm 0.41 in10.4 mm
12:12 AM 57.9°F14.4°C 54.7°F12.6°C 89% Calm Calm -- 29.84 in1010.5 mb - 0.27 in6.9 mm 0.37 in9.4 mm
12:07 AM 57.9°F14.4°C 54.7°F12.6°C 89% Calm Calm -- 29.84 in1010.5 mb - 0.39 in9.9 mm 0.37 in9.4 mm
12:02 AM 58.3°F14.6°C 55.0°F12.8°C 89% 3.8 mph S6.1 kmh S 6.9 mph11.1 kmh 29.84 in1010.5 mb - 0.39 in9.9 mm 0.37 in9.4 mm